Portland, Missouri
Current Conditions -  °F | °C
As of 5:53 PM on Friday 19 Dec 2014 (Local Time) from KJEF Reporting Station
Overcast Overcast  
Wind Chill: 32°   Ceiling: 1700
Heat Index: 37°   Visibility: 9mi
Dew Point: 32°   Wind: 6mph
Humidity: 82%   Direction: 80°E
Pressure: 30.24"   Gusts: NA
Location:  38.71°N, 91.72°W
Report Text: KJEF 192353Z 08005KT 9SM OVC017 03/00 A3024 RMK AO2 SLP236 T00280000 10033 20028 56000
Loading
Personal Weather Stations






























Interactive Weather Map New forecast layout! Learn more

10-Day Weather Forecast

Advertisements
Track Severe Weather on mobile